sensor_id;sensor_type;location;lat;lon;timestamp;pressure;altitude;pressure_sealevel;temperature;humidity
26220;BME280;13955;55.574;37.474;2022-10-16T00:02:02;100358.27;;;5.18;68.77
26220;BME280;13955;55.574;37.474;2022-10-16T00:04:32;100360.09;;;5.18;68.75
26220;BME280;13955;55.574;37.474;2022-10-16T00:07:02;100362.42;;;5.17;68.80
26220;BME280;13955;55.574;37.474;2022-10-16T00:09:33;100367.03;;;5.10;69.05
26220;BME280;13955;55.574;37.474;2022-10-16T00:12:03;100367.53;;;5.14;68.85
26220;BME280;13955;55.574;37.474;2022-10-16T00:14:35;100370.31;;;5.08;69.02
26220;BME280;13955;55.574;37.474;2022-10-16T00:17:05;100370.78;;;5.04;69.21
26220;BME280;13955;55.574;37.474;2022-10-16T00:19:35;100373.78;;;5.05;69.15
26220;BME280;13955;55.574;37.474;2022-10-16T00:22:04;100376.70;;;5.02;69.39
26220;BME280;13955;55.574;37.474;2022-10-16T00:24:51;100375.39;;;5.02;69.39
26220;BME280;13955;55.574;37.474;2022-10-16T00:27:21;100375.06;;;4.97;69.42
26220;BME280;13955;55.574;37.474;2022-10-16T00:29:52;100381.81;;;4.95;69.49
26220;BME280;13955;55.574;37.474;2022-10-16T00:32:22;100371.88;;;4.93;69.58
26220;BME280;13955;55.574;37.474;2022-10-16T00:34:52;100376.02;;;4.92;69.73
26220;BME280;13955;55.574;37.474;2022-10-16T00:37:23;100374.84;;;4.90;69.73
26220;BME280;13955;55.574;37.474;2022-10-16T00:39:53;100373.20;;;4.89;69.74
26220;BME280;13955;55.574;37.474;2022-10-16T00:42:23;100374.52;;;4.89;69.77
26220;BME280;13955;55.574;37.474;2022-10-16T00:44:55;100377.16;;;4.89;69.72
26220;BME280;13955;55.574;37.474;2022-10-16T00:47:40;100376.66;;;4.89;69.66
26220;BME280;13955;55.574;37.474;2022-10-16T00:50:27;100377.11;;;4.81;70.02
26220;BME280;13955;55.574;37.474;2022-10-16T00:52:56;100373.80;;;4.79;70.01
26220;BME280;13955;55.574;37.474;2022-10-16T00:55:28;100375.11;;;4.79;70.11
26220;BME280;13955;55.574;37.474;2022-10-16T00:57:59;100376.76;;;4.80;69.98
26220;BME280;13955;55.574;37.474;2022-10-16T01:00:29;100389.14;;;4.79;69.89
26220;BME280;13955;55.574;37.474;2022-10-16T01:03:01;100383.04;;;4.79;70.00
26220;BME280;13955;55.574;37.474;2022-10-16T01:05:44;100382.23;;;4.82;69.82
26220;BME280;13955;55.574;37.474;2022-10-16T01:08:17;100385.05;;;4.85;69.65
26220;BME280;13955;55.574;37.474;2022-10-16T01:10:59;100384.19;;;4.80;69.77
26220;BME280;13955;55.574;37.474;2022-10-16T01:13:35;100389.28;;;4.74;69.84
26220;BME280;13955;55.574;37.474;2022-10-16T01:16:10;100384.81;;;4.74;69.76
26220;BME280;13955;55.574;37.474;2022-10-16T01:18:49;100389.92;;;4.72;69.92
26220;BME280;13955;55.574;37.474;2022-10-16T01:21:39;100391.41;;;4.70;70.08
26220;BME280;13955;55.574;37.474;2022-10-16T01:24:18;100399.66;;;4.67;70.14
26220;BME280;13955;55.574;37.474;2022-10-16T01:27:04;100395.14;;;4.59;70.46
26220;BME280;13955;55.574;37.474;2022-10-16T01:37:53;100402.19;;;4.55;70.76
26220;BME280;13955;55.574;37.474;2022-10-16T01:40:25;100405.34;;;4.58;70.62
26220;BME280;13955;55.574;37.474;2022-10-16T01:43:27;100408.48;;;4.58;70.62
26220;BME280;13955;55.574;37.474;2022-10-16T01:45:51;100407.16;;;4.58;70.54
26220;BME280;13955;55.574;37.474;2022-10-16T01:48:23;100409.79;;;4.54;70.61
26220;BME280;13955;55.574;37.474;2022-10-16T01:51:08;100410.61;;;4.54;70.59
26220;BME280;13955;55.574;37.474;2022-10-16T01:53:40;100413.39;;;4.53;70.77
26220;BME280;13955;55.574;37.474;2022-10-16T01:56:13;100405.97;;;4.52;70.68
26220;BME280;13955;55.574;37.474;2022-10-16T01:58:57;100407.15;;;4.54;70.63
26220;BME280;13955;55.574;37.474;2022-10-16T02:01:23;100403.83;;;4.52;70.64
26220;BME280;13955;55.574;37.474;2022-10-16T02:03:56;100411.89;;;4.50;70.73
26220;BME280;13955;55.574;37.474;2022-10-16T02:06:27;100412.88;;;4.49;70.92
26220;BME280;13955;55.574;37.474;2022-10-16T02:08:59;100410.37;;;4.48;70.99
26220;BME280;13955;55.574;37.474;2022-10-16T02:11:29;100411.25;;;4.52;70.74
26220;BME280;13955;55.574;37.474;2022-10-16T02:14:02;100415.34;;;4.47;70.90
26220;BME280;13955;55.574;37.474;2022-10-16T02:16:38;100414.66;;;4.44;71.01
26220;BME280;13955;55.574;37.474;2022-10-16T02:19:15;100408.72;;;4.42;70.99
26220;BME280;13955;55.574;37.474;2022-10-16T02:21:50;100408.05;;;4.44;71.04
26220;BME280;13955;55.574;37.474;2022-10-16T02:29:50;100410.31;;;4.39;71.13
26220;BME280;13955;55.574;37.474;2022-10-16T02:32:23;100412.77;;;4.37;71.23
26220;BME280;13955;55.574;37.474;2022-10-16T02:34:54;100415.59;;;4.39;71.12
26220;BME280;13955;55.574;37.474;2022-10-16T02:37:25;100416.92;;;4.39;71.13
26220;BME280;13955;55.574;37.474;2022-10-16T02:39:58;100418.92;;;4.41;71.11
26220;BME280;13955;55.574;37.474;2022-10-16T02:42:33;100427.96;;;4.35;71.32
26220;BME280;13955;55.574;37.474;2022-10-16T02:45:01;100429.77;;;4.34;71.29
26220;BME280;13955;55.574;37.474;2022-10-16T02:47:31;100428.09;;;4.33;71.20
26220;BME280;13955;55.574;37.474;2022-10-16T02:50:02;100425.45;;;4.33;71.20
26220;BME280;13955;55.574;37.474;2022-10-16T02:52:32;100429.23;;;4.31;71.24
26220;BME280;13955;55.574;37.474;2022-10-16T02:55:02;100428.41;;;4.30;71.31
26220;BME280;13955;55.574;37.474;2022-10-16T02:57:32;100421.80;;;4.30;71.24
26220;BME280;13955;55.574;37.474;2022-10-16T03:00:04;100428.38;;;4.26;71.12
26220;BME280;13955;55.574;37.474;2022-10-16T03:02:35;100428.33;;;4.22;71.12
26220;BME280;13955;55.574;37.474;2022-10-16T03:05:05;100433.04;;;4.14;71.33
26220;BME280;13955;55.574;37.474;2022-10-16T03:07:35;100426.06;;;4.09;71.63
26220;BME280;13955;55.574;37.474;2022-10-16T03:10:06;100435.68;;;4.14;71.69
26220;BME280;13955;55.574;37.474;2022-10-16T03:12:36;100430.63;;;4.03;71.92
26220;BME280;13955;55.574;37.474;2022-10-16T03:15:07;100436.54;;;4.01;72.12
26220;BME280;13955;55.574;37.474;2022-10-16T03:17:38;100440.36;;;4.03;71.94
26220;BME280;13955;55.574;37.474;2022-10-16T03:20:08;100440.97;;;3.96;72.10
26220;BME280;13955;55.574;37.474;2022-10-16T03:22:38;100436.95;;;3.92;72.38
26220;BME280;13955;55.574;37.474;2022-10-16T03:25:08;100445.20;;;3.93;72.33
26220;BME280;13955;55.574;37.474;2022-10-16T03:27:39;100440.22;;;3.90;72.63
26220;BME280;13955;55.574;37.474;2022-10-16T03:30:09;100447.59;;;4.00;72.41
26220;BME280;13955;55.574;37.474;2022-10-16T03:32:39;100452.59;;;3.90;72.59
26220;BME280;13955;55.574;37.474;2022-10-16T03:35:10;100452.59;;;3.90;72.55
26220;BME280;13955;55.574;37.474;2022-10-16T03:37:40;100447.81;;;3.89;72.55
26220;BME280;13955;55.574;37.474;2022-10-16T03:40:10;100446.09;;;3.84;72.63
26220;BME280;13955;55.574;37.474;2022-10-16T03:42:42;100446.92;;;3.85;72.56
26220;BME280;13955;55.574;37.474;2022-10-16T03:45:12;100450.36;;;3.81;72.68
26220;BME280;13955;55.574;37.474;2022-10-16T03:47:43;100455.44;;;3.78;72.83
26220;BME280;13955;55.574;37.474;2022-10-16T03:50:13;100446.34;;;3.77;72.95
26220;BME280;13955;55.574;37.474;2022-10-16T03:52:43;100452.83;;;3.83;72.63
26220;BME280;13955;55.574;37.474;2022-10-16T03:55:13;100445.71;;;3.79;72.66
26220;BME280;13955;55.574;37.474;2022-10-16T03:57:43;100446.34;;;3.77;72.81
26220;BME280;13955;55.574;37.474;2022-10-16T04:00:14;100449.34;;;3.78;72.65
26220;BME280;13955;55.574;37.474;2022-10-16T04:02:44;100451.48;;;3.78;72.62
26220;BME280;13955;55.574;37.474;2022-10-16T04:05:14;100453.10;;;3.75;72.76
26220;BME280;13955;55.574;37.474;2022-10-16T04:07:45;100457.69;;;3.73;72.81
26220;BME280;13955;55.574;37.474;2022-10-16T04:10:15;100455.54;;;3.73;72.77
26220;BME280;13955;55.574;37.474;2022-10-16T04:12:45;100459.30;;;3.70;73.04
26220;BME280;13955;55.574;37.474;2022-10-16T04:15:15;100456.60;;;3.66;73.19
26220;BME280;13955;55.574;37.474;2022-10-16T04:17:46;100449.19;;;3.66;73.25
26220;BME280;13955;55.574;37.474;2022-10-16T04:20:16;100462.93;;;3.69;73.07
26220;BME280;13955;55.574;37.474;2022-10-16T04:22:46;100457.45;;;3.67;73.22
26220;BME280;13955;55.574;37.474;2022-10-16T04:25:17;100458.80;;;3.71;73.09
26220;BME280;13955;55.574;37.474;2022-10-16T04:27:47;100461.25;;;3.68;73.11
26220;BME280;13955;55.574;37.474;2022-10-16T04:30:17;100462.95;;;3.73;73.10
26220;BME280;13955;55.574;37.474;2022-10-16T04:32:51;100465.07;;;3.70;73.18
26220;BME280;13955;55.574;37.474;2022-10-16T04:35:22;100466.09;;;3.73;73.11
26220;BME280;13955;55.574;37.474;2022-10-16T04:37:52;100470.64;;;3.67;73.31
26220;BME280;13955;55.574;37.474;2022-10-16T04:40:22;100466.19;;;3.67;73.26
26220;BME280;13955;55.574;37.474;2022-10-16T04:42:52;100475.02;;;3.76;73.03
26220;BME280;13955;55.574;37.474;2022-10-16T04:45:22;100476.77;;;3.71;73.14
26220;BME280;13955;55.574;37.474;2022-10-16T04:47:52;100472.78;;;3.81;72.95
26220;BME280;13955;55.574;37.474;2022-10-16T04:50:23;100474.53;;;3.76;73.00
26220;BME280;13955;55.574;37.474;2022-10-16T04:52:55;100476.54;;;3.78;72.95
26220;BME280;13955;55.574;37.474;2022-10-16T04:55:25;100475.94;;;3.85;72.94
26220;BME280;13955;55.574;37.474;2022-10-16T04:57:55;100476.05;;;3.79;72.90
26220;BME280;13955;55.574;37.474;2022-10-16T05:00:26;100472.45;;;3.80;72.94
26220;BME280;13955;55.574;37.474;2022-10-16T05:02:56;100483.95;;;3.79;72.81
26220;BME280;13955;55.574;37.474;2022-10-16T05:05:28;100481.81;;;3.78;72.93
26220;BME280;13955;55.574;37.474;2022-10-16T05:07:58;100478.39;;;3.82;72.85
26220;BME280;13955;55.574;37.474;2022-10-16T05:10:29;100472.48;;;3.84;72.71
26220;BME280;13955;55.574;37.474;2022-10-16T05:12:59;100478.88;;;3.82;72.78
26220;BME280;13955;55.574;37.474;2022-10-16T05:15:29;100483.86;;;3.85;72.67
26220;BME280;13955;55.574;37.474;2022-10-16T05:18:00;100481.02;;;3.82;72.73
26220;BME280;13955;55.574;37.474;2022-10-16T05:20:30;100477.56;;;3.82;72.84
26220;BME280;13955;55.574;37.474;2022-10-16T05:23:00;100485.17;;;3.85;72.76
26220;BME280;13955;55.574;37.474;2022-10-16T05:25:30;100480.45;;;3.88;72.71
26220;BME280;13955;55.574;37.474;2022-10-16T05:28:01;100491.53;;;3.92;72.66
26220;BME280;13955;55.574;37.474;2022-10-16T05:30:31;100493.05;;;3.94;72.42
26220;BME280;13955;55.574;37.474;2022-10-16T05:33:01;100484.97;;;3.96;72.44
26220;BME280;13955;55.574;37.474;2022-10-16T05:35:31;100487.50;;;4.02;72.32
26220;BME280;13955;55.574;37.474;2022-10-16T05:38:02;100492.25;;;3.98;72.26
26220;BME280;13955;55.574;37.474;2022-10-16T05:40:32;100490.06;;;4.07;72.18
26220;BME280;13955;55.574;37.474;2022-10-16T05:43:02;100494.24;;;4.14;72.10
26220;BME280;13955;55.574;37.474;2022-10-16T05:45:32;100497.19;;;4.11;72.03
26220;BME280;13955;55.574;37.474;2022-10-16T05:48:03;100495.67;;;4.08;72.10
26220;BME280;13955;55.574;37.474;2022-10-16T05:50:33;100496.66;;;4.07;72.07
26220;BME280;13955;55.574;37.474;2022-10-16T05:53:03;100501.66;;;4.14;71.98
26220;BME280;13955;55.574;37.474;2022-10-16T05:55:33;100493.50;;;4.21;71.93
26220;BME280;13955;55.574;37.474;2022-10-16T05:58:04;100493.50;;;4.21;71.93
26220;BME280;13955;55.574;37.474;2022-10-16T06:00:34;100511.05;;;4.27;71.61
26220;BME280;13955;55.574;37.474;2022-10-16T06:03:04;100515.83;;;4.27;71.50
26220;BME280;13955;55.574;37.474;2022-10-16T06:05:36;100511.27;;;4.33;71.58
26220;BME280;13955;55.574;37.474;2022-10-16T06:08:06;100514.61;;;4.39;71.46
26220;BME280;13955;55.574;37.474;2022-10-16T06:10:36;100515.74;;;4.37;71.43
26220;BME280;13955;55.574;37.474;2022-10-16T06:13:06;100513.19;;;4.45;71.30
26220;BME280;13955;55.574;37.474;2022-10-16T06:15:36;100518.11;;;4.40;71.34
26220;BME280;13955;55.574;37.474;2022-10-16T06:18:08;100515.08;;;4.53;71.28
26220;BME280;13955;55.574;37.474;2022-10-16T06:20:39;100519.97;;;4.61;71.16
26220;BME280;13955;55.574;37.474;2022-10-16T06:23:09;100515.70;;;4.64;70.96
26220;BME280;13955;55.574;37.474;2022-10-16T06:25:39;100518.23;;;4.74;70.91
26220;BME280;13955;55.574;37.474;2022-10-16T06:28:09;100522.39;;;4.77;70.71
26220;BME280;13955;55.574;37.474;2022-10-16T06:30:39;100522.58;;;4.79;70.74
26220;BME280;13955;55.574;37.474;2022-10-16T06:33:10;100519.23;;;4.95;70.60
26220;BME280;13955;55.574;37.474;2022-10-16T06:35:40;100522.44;;;5.03;70.38
26220;BME280;13955;55.574;37.474;2022-10-16T06:38:09;100526.20;;;5.22;69.94
26220;BME280;13955;55.574;37.474;2022-10-16T06:40:40;100523.52;;;5.18;70.04
26220;BME280;13955;55.574;37.474;2022-10-16T06:43:10;100528.39;;;5.27;70.07
26220;BME280;13955;55.574;37.474;2022-10-16T06:45:40;100527.84;;;5.19;69.69
26220;BME280;13955;55.574;37.474;2022-10-16T06:48:10;100529.40;;;5.30;69.66
26220;BME280;13955;55.574;37.474;2022-10-16T06:50:40;100529.45;;;5.38;69.72
26220;BME280;13955;55.574;37.474;2022-10-16T06:53:12;100529.69;;;5.53;69.50
26220;BME280;13955;55.574;37.474;2022-10-16T06:55:42;100531.36;;;5.58;69.29
26220;BME280;13955;55.574;37.474;2022-10-16T06:58:14;100530.08;;;5.66;68.96
26220;BME280;13955;55.574;37.474;2022-10-16T07:00:44;100527.97;;;5.74;68.92
26220;BME280;13955;55.574;37.474;2022-10-16T07:03:14;100536.77;;;5.83;68.73
26220;BME280;13955;55.574;37.474;2022-10-16T07:05:44;100538.45;;;5.88;68.54
26220;BME280;13955;55.574;37.474;2022-10-16T07:08:14;100532.59;;;6.10;68.13
26220;BME280;13955;55.574;37.474;2022-10-16T07:10:44;100533.45;;;6.15;68.19
26220;BME280;13955;55.574;37.474;2022-10-16T07:13:17;100532.80;;;6.21;67.82
26220;BME280;13955;55.574;37.474;2022-10-16T07:15:46;100533.99;;;6.31;67.55
26220;BME280;13955;55.574;37.474;2022-10-16T07:18:16;100531.87;;;6.51;67.01
26220;BME280;13955;55.574;37.474;2022-10-16T07:20:46;100539.48;;;6.54;67.23
26220;BME280;13955;55.574;37.474;2022-10-16T07:23:17;100534.70;;;6.61;66.84
26220;BME280;13955;55.574;37.474;2022-10-16T07:25:53;100533.73;;;6.71;66.52
26220;BME280;13955;55.574;37.474;2022-10-16T07:28:20;100539.19;;;6.85;66.46
26220;BME280;13955;55.574;37.474;2022-10-16T07:30:50;100534.70;;;7.02;66.28
26220;BME280;13955;55.574;37.474;2022-10-16T07:33:21;100539.68;;;7.18;65.80
26220;BME280;13955;55.574;37.474;2022-10-16T07:35:53;100538.83;;;7.33;65.65
26220;BME280;13955;55.574;37.474;2022-10-16T07:38:23;100536.84;;;7.36;65.17
26220;BME280;13955;55.574;37.474;2022-10-16T07:41:05;100539.60;;;7.63;64.41
26220;BME280;13955;55.574;37.474;2022-10-16T07:43:36;100539.60;;;7.63;64.41
26220;BME280;13955;55.574;37.474;2022-10-16T07:46:06;100535.41;;;7.76;63.59
26220;BME280;13955;55.574;37.474;2022-10-16T07:48:36;100535.31;;;7.97;63.53
26220;BME280;13955;55.574;37.474;2022-10-16T07:51:07;100538.12;;;8.04;63.11
26220;BME280;13955;55.574;37.474;2022-10-16T07:53:37;100535.50;;;7.95;61.74
26220;BME280;13955;55.574;37.474;2022-10-16T07:56:08;100539.13;;;7.94;61.30
26220;BME280;13955;55.574;37.474;2022-10-16T07:58:39;100539.95;;;8.30;61.42
26220;BME280;13955;55.574;37.474;2022-10-16T08:01:12;100539.74;;;11.52;54.94
26220;BME280;13955;55.574;37.474;2022-10-16T08:03:44;100533.47;;;14.14;48.04
26220;BME280;13955;55.574;37.474;2022-10-16T08:06:16;100536.78;;;15.55;44.36
26220;BME280;13955;55.574;37.474;2022-10-16T08:08:46;100528.80;;;16.22;41.61
26220;BME280;13955;55.574;37.474;2022-10-16T08:11:17;100527.05;;;16.58;39.72
26220;BME280;13955;55.574;37.474;2022-10-16T08:13:47;100529.53;;;17.37;38.45
26220;BME280;13955;55.574;37.474;2022-10-16T08:16:17;100515.81;;;17.50;37.28
26220;BME280;13955;55.574;37.474;2022-10-16T08:18:47;100519.95;;;18.48;36.02
26220;BME280;13955;55.574;37.474;2022-10-16T08:21:21;100523.83;;;18.52;34.77
26220;BME280;13955;55.574;37.474;2022-10-16T08:23:53;100518.66;;;18.50;34.22
26220;BME280;13955;55.574;37.474;2022-10-16T08:26:25;100518.68;;;19.15;33.86
26220;BME280;13955;55.574;37.474;2022-10-16T08:28:55;100516.25;;;20.16;32.27
26220;BME280;13955;55.574;37.474;2022-10-16T08:31:25;100524.08;;;19.90;31.80
26220;BME280;13955;55.574;37.474;2022-10-16T08:33:55;100519.20;;;20.93;31.59
26220;BME280;13955;55.574;37.474;2022-10-16T08:36:25;100519.20;;;20.93;31.59
26220;BME280;13955;55.574;37.474;2022-10-16T08:38:55;100513.61;;;20.48;30.60
26220;BME280;13955;55.574;37.474;2022-10-16T08:57:27;100505.30;;;21.24;29.64
26220;BME280;13955;55.574;37.474;2022-10-16T09:00:08;100505.30;;;21.24;29.64
26220;BME280;13955;55.574;37.474;2022-10-16T09:16:34;100507.67;;;21.51;27.30
26220;BME280;13955;55.574;37.474;2022-10-16T09:19:20;100500.73;;;23.02;25.63
26220;BME280;13955;55.574;37.474;2022-10-16T09:21:41;100508.72;;;22.05;25.90
26220;BME280;13955;55.574;37.474;2022-10-16T09:24:14;100501.30;;;21.85;26.41
26220;BME280;13955;55.574;37.474;2022-10-16T09:26:46;100501.77;;;21.64;26.64
26220;BME280;13955;55.574;37.474;2022-10-16T09:29:18;100495.00;;;22.78;25.80
26220;BME280;13955;55.574;37.474;2022-10-16T09:31:54;100497.44;;;22.56;25.61
26220;BME280;13955;55.574;37.474;2022-10-16T09:34:32;100505.33;;;23.19;25.12
26220;BME280;13955;55.574;37.474;2022-10-16T09:37:04;100497.97;;;22.46;25.52
26220;BME280;13955;55.574;37.474;2022-10-16T09:39:46;100505.34;;;21.75;26.21
26220;BME280;13955;55.574;37.474;2022-10-16T09:42:18;100503.86;;;21.09;26.81
26220;BME280;13955;55.574;37.474;2022-10-16T09:44:51;100498.93;;;21.06;27.11
26220;BME280;13955;55.574;37.474;2022-10-16T09:47:25;100511.47;;;20.50;28.12
26220;BME280;13955;55.574;37.474;2022-10-16T09:50:00;100500.23;;;20.96;27.79
26220;BME280;13955;55.574;37.474;2022-10-16T09:52:33;100495.52;;;21.21;27.71
26220;BME280;13955;55.574;37.474;2022-10-16T09:55:15;100494.03;;;20.17;28.77
26220;BME280;13955;55.574;37.474;2022-10-16T09:57:54;100493.03;;;21.12;27.73
26220;BME280;13955;55.574;37.474;2022-10-16T10:00:25;100507.33;;;21.02;27.43
26220;BME280;13955;55.574;37.474;2022-10-16T10:02:55;100490.74;;;20.96;27.78
26220;BME280;13955;55.574;37.474;2022-10-16T10:05:28;100488.88;;;21.01;27.72
26220;BME280;13955;55.574;37.474;2022-10-16T10:08:04;100491.20;;;21.28;27.43
26220;BME280;13955;55.574;37.474;2022-10-16T10:10:39;100486.30;;;21.67;27.19
26220;BME280;13955;55.574;37.474;2022-10-16T10:13:21;100478.19;;;21.72;27.01
26220;BME280;13955;55.574;37.474;2022-10-16T10:15:53;100489.89;;;20.58;28.04
26220;BME280;13955;55.574;37.474;2022-10-16T10:18:23;100488.45;;;20.53;28.14
26220;BME280;13955;55.574;37.474;2022-10-16T10:21:02;100481.26;;;20.36;28.50
26220;BME280;13955;55.574;37.474;2022-10-16T10:23:34;100481.58;;;20.43;28.79
26220;BME280;13955;55.574;37.474;2022-10-16T10:26:20;100485.05;;;21.98;27.02
26220;BME280;13955;55.574;37.474;2022-10-16T10:29:13;100475.83;;;22.04;26.80
26220;BME280;13955;55.574;37.474;2022-10-16T10:31:47;100477.00;;;22.18;26.43
26220;BME280;13955;55.574;37.474;2022-10-16T10:34:19;100476.70;;;21.49;27.14
26220;BME280;13955;55.574;37.474;2022-10-16T10:36:54;100465.28;;;21.39;27.75
26220;BME280;13955;55.574;37.474;2022-10-16T10:39:31;100483.34;;;19.80;29.25
26220;BME280;13955;55.574;37.474;2022-10-16T10:44:55;100481.70;;;20.01;29.50
26220;BME280;13955;55.574;37.474;2022-10-16T10:50:25;100476.61;;;19.22;30.47
26220;BME280;13955;55.574;37.474;2022-10-16T10:53:26;100468.92;;;19.33;30.38
26220;BME280;13955;55.574;37.474;2022-10-16T10:59:06;100459.12;;;21.59;27.41
26220;BME280;13955;55.574;37.474;2022-10-16T11:01:52;100466.29;;;21.31;27.84
26220;BME280;13955;55.574;37.474;2022-10-16T11:04:40;100455.78;;;21.39;27.90
26220;BME280;13955;55.574;37.474;2022-10-16T11:07:10;100461.23;;;20.67;28.51
26220;BME280;13955;55.574;37.474;2022-10-16T11:09:53;100450.35;;;20.99;28.53
26220;BME280;13955;55.574;37.474;2022-10-16T11:12:25;100460.73;;;21.60;27.51
26220;BME280;13955;55.574;37.474;2022-10-16T11:15:14;100453.48;;;20.84;28.27
26220;BME280;13955;55.574;37.474;2022-10-16T11:17:51;100452.73;;;20.29;28.96
26220;BME280;13955;55.574;37.474;2022-10-16T11:20:47;100465.66;;;19.73;29.93
26220;BME280;13955;55.574;37.474;2022-10-16T11:23:31;100454.76;;;20.41;28.99
26220;BME280;13955;55.574;37.474;2022-10-16T11:26:04;100449.31;;;20.71;28.77
26220;BME280;13955;55.574;37.474;2022-10-16T11:28:37;100461.33;;;20.50;28.64
26220;BME280;13955;55.574;37.474;2022-10-16T11:31:11;100447.97;;;20.68;28.69
26220;BME280;13955;55.574;37.474;2022-10-16T11:33:44;100453.64;;;20.40;29.01
26220;BME280;13955;55.574;37.474;2022-10-16T11:36:26;100436.83;;;20.67;28.84
26220;BME280;13955;55.574;37.474;2022-10-16T11:39:00;100436.83;;;20.67;28.84
26220;BME280;13955;55.574;37.474;2022-10-16T11:46:42;100446.55;;;20.33;28.96
26220;BME280;13955;55.574;37.474;2022-10-16T11:49:18;100442.44;;;19.77;29.57
26220;BME280;13955;55.574;37.474;2022-10-16T11:54:39;100442.84;;;20.15;29.84
26220;BME280;13955;55.574;37.474;2022-10-16T11:57:14;100431.40;;;21.05;28.50
26220;BME280;13955;55.574;37.474;2022-10-16T11:59:56;100434.36;;;21.45;27.92
26220;BME280;13955;55.574;37.474;2022-10-16T12:07:50;100437.86;;;20.96;28.45
26220;BME280;13955;55.574;37.474;2022-10-16T12:10:24;100432.84;;;21.22;28.50
26220;BME280;13955;55.574;37.474;2022-10-16T12:12:55;100432.55;;;21.16;28.00
26220;BME280;13955;55.574;37.474;2022-10-16T12:15:26;100432.55;;;21.16;28.00
26220;BME280;13955;55.574;37.474;2022-10-16T12:17:56;100438.30;;;20.50;28.57
26220;BME280;13955;55.574;37.474;2022-10-16T12:20:32;100440.22;;;19.52;30.13
26220;BME280;13955;55.574;37.474;2022-10-16T12:23:05;100426.56;;;19.85;29.84
26220;BME280;13955;55.574;37.474;2022-10-16T12:25:38;100430.01;;;19.37;30.51
26220;BME280;13955;55.574;37.474;2022-10-16T12:28:21;100414.19;;;19.95;29.92
26220;BME280;13955;55.574;37.474;2022-10-16T12:31:04;100415.98;;;20.11;29.47
26220;BME280;13955;55.574;37.474;2022-10-16T12:33:39;100420.30;;;19.60;30.11
26220;BME280;13955;55.574;37.474;2022-10-16T12:36:32;100423.24;;;19.37;30.61
26220;BME280;13955;55.574;37.474;2022-10-16T12:39:03;100423.56;;;18.82;31.01
26220;BME280;13955;55.574;37.474;2022-10-16T12:41:36;100420.63;;;18.35;31.88
26220;BME280;13955;55.574;37.474;2022-10-16T12:44:25;100420.05;;;18.67;31.78
26220;BME280;13955;55.574;37.474;2022-10-16T12:46:58;100414.60;;;18.65;31.58
26220;BME280;13955;55.574;37.474;2022-10-16T12:49:37;100420.44;;;18.73;31.50
26220;BME280;13955;55.574;37.474;2022-10-16T12:55:00;100415.69;;;18.97;31.68
26220;BME280;13955;55.574;37.474;2022-10-16T12:57:41;100413.45;;;19.11;31.56
26220;BME280;13955;55.574;37.474;2022-10-16T13:00:44;100413.92;;;19.06;31.36
26220;BME280;13955;55.574;37.474;2022-10-16T13:06:28;100422.16;;;18.63;32.08
26220;BME280;13955;55.574;37.474;2022-10-16T13:09:07;100419.23;;;18.33;32.61
26220;BME280;13955;55.574;37.474;2022-10-16T13:12:05;100420.03;;;17.88;32.97
26220;BME280;13955;55.574;37.474;2022-10-16T13:17:37;100415.84;;;17.40;33.96
26220;BME280;13955;55.574;37.474;2022-10-16T13:20:21;100427.32;;;16.65;35.25
26220;BME280;13955;55.574;37.474;2022-10-16T13:23:13;100419.75;;;16.97;34.93
26220;BME280;13955;55.574;37.474;2022-10-16T13:26:03;100419.80;;;17.11;34.86
26220;BME280;13955;55.574;37.474;2022-10-16T13:28:33;100420.44;;;17.16;34.82
26220;BME280;13955;55.574;37.474;2022-10-16T13:31:04;100416.94;;;16.92;35.07
26220;BME280;13955;55.574;37.474;2022-10-16T13:33:39;100414.34;;;16.40;36.07
26220;BME280;13955;55.574;37.474;2022-10-16T13:36:27;100414.20;;;16.56;35.92
26220;BME280;13955;55.574;37.474;2022-10-16T13:42:09;100414.75;;;16.47;36.06
26220;BME280;13955;55.574;37.474;2022-10-16T13:44:43;100423.55;;;16.21;36.32
26220;BME280;13955;55.574;37.474;2022-10-16T13:47:21;100420.83;;;15.70;37.25
26220;BME280;13955;55.574;37.474;2022-10-16T13:50:04;100427.45;;;15.30;38.08
26220;BME280;13955;55.574;37.474;2022-10-16T13:52:35;100413.19;;;14.93;38.91
26220;BME280;13955;55.574;37.474;2022-10-16T13:55:11;100422.40;;;14.54;39.81
26220;BME280;13955;55.574;37.474;2022-10-16T13:57:42;100417.13;;;14.09;40.91
26220;BME280;13955;55.574;37.474;2022-10-16T14:00:19;100410.39;;;13.55;42.15
26220;BME280;13955;55.574;37.474;2022-10-16T14:03:11;100416.03;;;13.33;42.83
26220;BME280;13955;55.574;37.474;2022-10-16T14:05:32;100418.62;;;12.97;43.68
26220;BME280;13955;55.574;37.474;2022-10-16T14:08:02;100416.70;;;12.75;44.28
26220;BME280;13955;55.574;37.474;2022-10-16T14:10:33;100418.98;;;12.72;44.51
26220;BME280;13955;55.574;37.474;2022-10-16T14:13:05;100421.13;;;12.59;44.78
26220;BME280;13955;55.574;37.474;2022-10-16T14:15:39;100421.86;;;12.30;45.57
26220;BME280;13955;55.574;37.474;2022-10-16T14:18:13;100421.34;;;12.24;45.73
26220;BME280;13955;55.574;37.474;2022-10-16T14:20:42;100422.32;;;12.10;46.35
26220;BME280;13955;55.574;37.474;2022-10-16T14:23:22;100424.55;;;12.00;46.53
26220;BME280;13955;55.574;37.474;2022-10-16T14:26:59;100429.67;;;11.88;46.85
26220;BME280;13955;55.574;37.474;2022-10-16T14:28:38;100418.34;;;11.86;46.93
26220;BME280;13955;55.574;37.474;2022-10-16T14:31:30;100420.86;;;11.70;47.38
26220;BME280;13955;55.574;37.474;2022-10-16T14:34:00;100422.50;;;11.71;47.47
26220;BME280;13955;55.574;37.474;2022-10-16T14:36:31;100423.91;;;11.67;47.77